Time;durP1;ratioP1;P1;durP2;ratioP2;P2;SDS_P1;SDS_P2;PMS_P1;PMS_P2;Temp;Humidity;BMP_temperature;BMP_pressure;BME280_temperature;BME280_humidity;BME280_pressure;Samples;Min_cycle;Max_cycle;Signal;HPM_P1;HPM_P2
2023/05/18 00:00:45;;;;;;;10.75;4.57;;;;;;;3.85;100.00;99514.06;4180522;28;20189;-72
2023/05/18 00:02:47;;;;;;;12.20;5.35;;;;;;;3.85;100.00;99521.47;4180215;28;20337;-72
2023/05/18 00:04:47;;;;;;;11.65;4.85;;;;;;;3.83;100.00;99520.97;4184138;28;20044;-72
2023/05/18 00:06:47;;;;;;;6.28;4.65;;;;;;;3.81;100.00;99524.03;4181869;28;20040;-72
2023/05/18 00:08:48;;;;;;;6.18;4.30;;;;;;;3.76;100.00;99509.63;4183556;28;20531;-72
2023/05/18 00:10:48;;;;;;;6.15;4.70;;;;;;;3.74;100.00;99518.16;4178061;28;20082;-72
2023/05/18 00:12:48;;;;;;;7.50;4.45;;;;;;;3.72;100.00;99520.38;4183852;28;20120;-72
2023/05/18 00:14:49;;;;;;;7.18;4.63;;;;;;;3.71;100.00;99515.19;4186528;28;20083;-72
2023/05/18 00:16:49;;;;;;;5.70;4.43;;;;;;;3.68;100.00;99513.91;4185004;28;20131;-72
2023/05/18 00:18:53;;;;;;;8.40;4.28;;;;;;;3.63;100.00;99516.72;4181534;28;20127;-72
2023/05/18 00:21:00;;;;;;;8.10;5.00;;;;;;;3.65;100.00;99517.25;4178923;28;20080;-72
2023/05/18 00:23:01;;;;;;;6.53;4.53;;;;;;;3.56;100.00;99522.66;4184385;28;20064;-72
2023/05/18 00:25:01;;;;;;;8.35;4.35;;;;;;;3.52;100.00;99521.63;4188684;28;20147;-72
2023/05/18 00:27:02;;;;;;;9.43;4.70;;;;;;;3.51;100.00;99524.66;4182318;28;20056;-72
2023/05/18 00:29:02;;;;;;;11.00;5.00;;;;;;;3.49;100.00;99522.25;4182983;28;20118;-72
2023/05/18 00:31:02;;;;;;;7.82;4.55;;;;;;;3.48;100.00;99522.56;4182285;28;20079;-72
2023/05/18 00:33:03;;;;;;;8.23;4.70;;;;;;;3.57;100.00;99523.47;4181013;28;20052;-72
2023/05/18 00:35:03;;;;;;;7.95;4.88;;;;;;;3.53;100.00;99523.25;4183208;28;20090;-72
2023/05/18 00:37:04;;;;;;;6.25;4.68;;;;;;;3.50;100.00;99518.38;4179152;28;20032;-72
2023/05/18 00:39:05;;;;;;;12.70;5.00;;;;;;;3.45;100.00;99523.97;4180870;28;20044;-72
2023/05/18 00:41:06;;;;;;;6.90;4.63;;;;;;;3.42;100.00;99521.84;4177863;28;20112;-72
2023/05/18 00:43:06;;;;;;;7.82;4.15;;;;;;;3.33;100.00;99527.22;4182091;28;20577;-72
2023/05/18 00:45:07;;;;;;;7.90;4.63;;;;;;;3.22;100.00;99527.72;4184408;28;20735;-72
2023/05/18 00:47:08;;;;;;;9.60;5.75;;;;;;;3.13;100.00;99527.59;4177148;28;20036;-72
2023/05/18 00:49:09;;;;;;;12.63;5.53;;;;;;;2.97;100.00;99529.00;4182318;28;20033;-72
2023/05/18 00:51:10;;;;;;;7.05;4.32;;;;;;;2.90;100.00;99523.97;4187424;28;20404;-72
2023/05/18 00:53:10;;;;;;;7.65;4.45;;;;;;;2.88;100.00;99528.09;4179958;28;20052;-72
2023/05/18 00:55:13;;;;;;;8.20;4.55;;;;;;;2.86;100.00;99533.06;4183434;28;20053;-72
2023/05/18 00:57:13;;;;;;;7.43;4.68;;;;;;;2.85;100.00;99534.16;4175580;28;20043;-72
2023/05/18 00:59:14;;;;;;;11.00;5.00;;;;;;;2.87;100.00;99538.22;4184210;28;20156;-72
2023/05/18 01:01:16;;;;;;;7.20;4.18;;;;;;;2.89;100.00;99530.53;4182085;28;20029;-72
2023/05/18 01:03:18;;;;;;;8.50;4.70;;;;;;;2.95;100.00;99532.06;4176656;28;20493;-72
2023/05/18 01:05:20;;;;;;;8.13;4.70;;;;;;;2.98;100.00;99526.00;4179932;28;20036;-72
2023/05/18 01:07:25;;;;;;;10.65;4.80;;;;;;;3.04;100.00;99534.91;4182356;28;20045;-72
2023/05/18 01:09:25;;;;;;;10.82;4.82;;;;;;;3.12;100.00;99528.72;4182015;28;20080;-72
2023/05/18 01:11:37;;;;;;;6.07;4.70;;;;;;;3.19;100.00;99533.78;4178712;28;20049;-72
2023/05/18 01:13:46;;;;;;;6.45;4.50;;;;;;;3.18;100.00;99532.19;4180402;28;20051;-72
2023/05/18 01:15:53;;;;;;;8.48;4.43;;;;;;;3.17;100.00;99531.38;4178967;28;20540;-72
2023/05/18 01:17:59;;;;;;;7.65;4.20;;;;;;;3.14;100.00;99542.91;4183586;28;20111;-72
2023/05/18 01:20:10;;;;;;;12.10;5.28;;;;;;;3.08;100.00;99538.66;4177579;28;20049;-72
2023/05/18 01:22:34;;;;;;;8.20;4.45;;;;;;;3.04;100.00;99538.44;4183126;28;20087;-72
2023/05/18 01:24:43;;;;;;;5.10;3.92;;;;;;;2.93;100.00;99537.03;4159916;28;20819;-72
2023/05/18 01:26:49;;;;;;;7.22;4.72;;;;;;;2.87;100.00;99540.16;4183492;28;20056;-72
2023/05/18 01:28:50;;;;;;;5.68;4.60;;;;;;;2.76;100.00;99537.59;4183546;28;20784;-72
2023/05/18 01:30:51;;;;;;;8.13;5.20;;;;;;;2.74;100.00;99545.28;4182211;28;20041;-72
2023/05/18 01:32:53;;;;;;;11.60;4.70;;;;;;;2.69;100.00;99539.09;4181211;28;20074;-72
2023/05/18 01:34:53;;;;;;;8.43;4.60;;;;;;;2.74;100.00;99545.28;4183925;28;20036;-72
2023/05/18 01:36:53;;;;;;;9.95;4.82;;;;;;;2.71;100.00;99559.53;4181690;28;20369;-72
2023/05/18 01:38:55;;;;;;;5.97;4.38;;;;;;;2.68;100.00;99546.50;4180596;28;20040;-72
2023/05/18 01:41:21;;;;;;;10.65;4.82;;;;;;;2.72;100.00;99546.69;4179794;28;20156;-72
2023/05/18 01:43:29;;;;;;;9.63;5.00;;;;;;;2.68;100.00;99560.16;4178531;28;20464;-72
2023/05/18 01:45:31;;;;;;;8.95;4.93;;;;;;;2.67;100.00;99555.00;4179970;28;20045;-72
2023/05/18 01:47:33;;;;;;;7.53;4.47;;;;;;;2.63;100.00;99560.22;4183012;28;20036;-72
2023/05/18 01:50:01;;;;;;;11.45;5.15;;;;;;;2.60;100.00;99563.56;4184766;28;20095;-72
2023/05/18 01:52:07;;;;;;;8.00;4.45;;;;;;;2.53;100.00;99560.41;4179313;28;20121;-72
2023/05/18 01:54:10;;;;;;;7.30;4.43;;;;;;;2.49;100.00;99559.41;4178632;28;20068;-72
2023/05/18 01:56:13;;;;;;;10.65;4.68;;;;;;;2.47;100.00;99567.06;4183664;28;20372;-72
2023/05/18 01:58:15;;;;;;;10.27;5.18;;;;;;;2.37;100.00;99565.31;4182158;28;20075;-71
2023/05/18 02:00:17;;;;;;;6.57;4.63;;;;;;;2.40;100.00;99559.25;4177514;28;20036;-72
2023/05/18 02:02:17;;;;;;;7.38;4.03;;;;;;;2.36;100.00;99560.94;4183370;28;20193;-72
2023/05/18 02:04:18;;;;;;;4.93;4.10;;;;;;;2.30;100.00;99556.66;4180735;28;20027;-72
2023/05/18 02:06:18;;;;;;;5.85;4.32;;;;;;;2.24;100.00;99558.69;4185107;28;20127;-72
2023/05/18 02:08:18;;;;;;;4.35;3.80;;;;;;;2.17;100.00;99547.31;4175497;28;20029;-72
2023/05/18 02:10:19;;;;;;;9.05;5.00;;;;;;;2.13;100.00;99559.94;4178662;28;20127;-72
2023/05/18 02:12:19;;;;;;;7.68;4.53;;;;;;;2.08;100.00;99565.47;4182639;28;20074;-72
2023/05/18 02:14:19;;;;;;;6.75;4.55;;;;;;;2.00;100.00;99568.88;4179800;28;20033;-72
2023/05/18 02:16:20;;;;;;;5.32;4.30;;;;;;;1.95;100.00;99571.66;4182589;28;20402;-72
2023/05/18 02:18:20;;;;;;;7.50;4.72;;;;;;;1.96;100.00;99565.09;4179625;28;20053;-72
2023/05/18 02:20:21;;;;;;;6.72;4.40;;;;;;;1.93;100.00;99563.78;4178285;28;20048;-72
2023/05/18 02:22:21;;;;;;;5.78;4.47;;;;;;;1.91;100.00;99563.28;4182415;28;20033;-72
2023/05/18 02:24:23;;;;;;;7.03;4.55;;;;;;;1.88;100.00;99558.38;4181000;28;20037;-72
2023/05/18 02:26:23;;;;;;;9.38;4.82;;;;;;;1.83;100.00;99565.84;4182842;28;20048;-72
2023/05/18 02:28:24;;;;;;;8.70;4.80;;;;;;;1.79;100.00;99565.59;4181284;28;20075;-72
2023/05/18 02:30:24;;;;;;;6.60;4.43;;;;;;;1.75;100.00;99563.78;4183207;28;20133;-72
2023/05/18 02:32:25;;;;;;;9.05;5.07;;;;;;;1.77;100.00;99558.81;4181630;28;20044;-72
2023/05/18 02:34:26;;;;;;;7.13;4.80;;;;;;;1.74;100.00;99559.41;4178216;28;20037;-71
2023/05/18 02:36:26;;;;;;;8.35;4.80;;;;;;;1.72;100.00;99556.97;4176237;28;20048;-72
2023/05/18 02:38:27;;;;;;;5.63;4.18;;;;;;;1.68;100.00;99555.94;4177148;28;20052;-72
2023/05/18 02:40:27;;;;;;;7.78;4.45;;;;;;;1.64;100.00;99557.63;4180745;28;20465;-71
2023/05/18 02:42:27;;;;;;;6.75;4.18;;;;;;;1.65;100.00;99556.50;4180776;28;20041;-71
2023/05/18 02:44:27;;;;;;;5.93;4.47;;;;;;;1.63;100.00;99562.25;4181390;28;20440;-71
2023/05/18 02:46:28;;;;;;;6.35;4.03;;;;;;;1.59;100.00;99552.25;4179352;28;20090;-71
2023/05/18 02:48:29;;;;;;;8.05;4.47;;;;;;;1.63;100.00;99550.53;4179331;28;20029;-71
2023/05/18 02:50:29;;;;;;;11.35;4.97;;;;;;;1.68;100.00;99553.22;4182534;28;20444;-71
2023/05/18 02:52:30;;;;;;;8.05;4.88;;;;;;;1.66;100.00;99548.06;4181738;28;20043;-71
2023/05/18 02:54:30;;;;;;;9.20;4.43;;;;;;;1.66;100.00;99558.16;4177878;28;20071;-71
2023/05/18 02:56:31;;;;;;;5.53;4.38;;;;;;;1.66;100.00;99555.44;4183601;28;20370;-72
2023/05/18 02:58:31;;;;;;;7.32;4.03;;;;;;;1.78;100.00;99555.81;4184272;28;20047;-71
2023/05/18 03:00:32;;;;;;;7.88;4.82;;;;;;;1.72;100.00;99550.69;4180750;28;20051;-72
2023/05/18 03:02:32;;;;;;;8.75;4.40;;;;;;;1.63;100.00;99556.00;4183712;28;20061;-71
2023/05/18 03:04:33;;;;;;;6.75;4.63;;;;;;;1.56;100.00;99553.63;4185456;28;20086;-72
2023/05/18 03:06:34;;;;;;;6.15;4.85;;;;;;;1.48;100.00;99545.28;4187241;28;20090;-71
2023/05/18 03:08:36;;;;;;;6.90;3.97;;;;;;;1.44;100.00;99546.97;4183304;28;20041;-71
2023/05/18 03:10:37;;;;;;;10.95;4.53;;;;;;;1.37;100.00;99539.16;4186707;28;20049;-71
2023/05/18 03:12:37;;;;;;;7.55;4.32;;;;;;;1.35;100.00;99555.00;4186224;28;20044;-71
2023/05/18 03:14:37;;;;;;;7.00;4.75;;;;;;;1.29;100.00;99548.78;4181433;28;20079;-71
2023/05/18 03:16:38;;;;;;;8.20;4.07;;;;;;;1.24;100.00;99554.31;4186011;28;20431;-71
2023/05/18 03:18:38;;;;;;;6.57;4.10;;;;;;;1.24;100.00;99557.03;4185204;28;20082;-71
2023/05/18 03:20:39;;;;;;;6.88;3.88;;;;;;;1.20;100.00;99555.16;4182108;28;20049;-71
2023/05/18 03:22:40;;;;;;;7.80;4.63;;;;;;;1.17;100.00;99551.13;4180683;28;20041;-71
2023/05/18 03:24:40;;;;;;;6.50;4.00;;;;;;;1.16;100.00;99545.94;4186133;28;20373;-71
2023/05/18 03:26:43;;;;;;;7.72;4.30;;;;;;;1.10;100.00;99545.19;4185237;28;20434;-71
2023/05/18 03:28:43;;;;;;;;;;;;;;;1.09;100.00;99549.03;4181544;28;20040;-71
2023/05/18 03:30:43;;;;;;;8.43;4.90;;;;;;;1.06;100.00;99552.31;4185707;28;20407;-71
2023/05/18 03:32:44;;;;;;;6.90;4.43;;;;;;;1.05;100.00;99554.22;4184204;28;20040;-71
2023/05/18 03:34:46;;;;;;;7.68;5.10;;;;;;;1.07;100.00;99553.94;4182875;28;20568;-71
2023/05/18 03:36:46;;;;;;;7.45;4.30;;;;;;;1.06;100.00;99557.75;4184155;28;20105;-71
2023/05/18 03:38:47;;;;;;;6.68;3.92;;;;;;;1.05;100.00;99556.97;4188197;28;20353;-71
2023/05/18 03:40:47;;;;;;;7.28;4.28;;;;;;;1.08;100.00;99558.31;4179644;28;20539;-71
2023/05/18 03:42:48;;;;;;;7.05;4.13;;;;;;;1.07;100.00;99559.38;4182869;28;20210;-71
2023/05/18 03:44:48;;;;;;;8.13;4.55;;;;;;;1.10;100.00;99558.81;4183756;28;20152;-71
2023/05/18 03:46:48;;;;;;;7.00;4.50;;;;;;;1.09;100.00;99570.84;4180591;28;20079;-71
2023/05/18 03:48:50;;;;;;;10.07;4.60;;;;;;;1.07;100.00;99562.91;4182607;28;20045;-71
2023/05/18 03:50:50;;;;;;;6.32;4.22;;;;;;;1.10;100.00;99577.91;4184855;28;20051;-71
2023/05/18 03:52:51;;;;;;;6.18;4.25;;;;;;;1.10;100.00;99573.25;4183052;28;20123;-71
2023/05/18 03:54:52;;;;;;;7.72;4.47;;;;;;;1.09;100.00;99570.84;4181733;28;20041;-71
2023/05/18 03:56:52;;;;;;;5.32;3.85;;;;;;;1.12;100.00;99575.69;4184395;28;20036;-71
2023/05/18 03:58:52;;;;;;;8.27;4.38;;;;;;;1.13;100.00;99564.50;4184106;28;20056;-71
2023/05/18 04:00:53;;;;;;;18.73;4.30;;;;;;;1.17;100.00;99580.28;4182443;28;20060;-71
2023/05/18 04:02:53;;;;;;;5.60;4.10;;;;;;;1.23;100.00;99571.75;4179274;28;20264;-71
2023/05/18 04:04:56;;;;;;;5.22;3.97;;;;;;;1.33;100.00;99565.38;4183017;28;20036;-71
2023/05/18 04:06:57;;;;;;;5.90;4.18;;;;;;;1.49;100.00;99571.44;4183346;28;20884;-71
2023/05/18 04:09:01;;;;;;;5.82;4.15;;;;;;;1.62;100.00;99573.47;4181255;28;20045;-71
2023/05/18 04:11:01;;;;;;;6.20;4.32;;;;;;;1.71;100.00;99573.63;4185785;28;20049;-71
2023/05/18 04:13:02;;;;;;;5.78;4.10;;;;;;;1.80;100.00;99574.59;4180391;28;20412;-71
2023/05/18 04:15:02;;;;;;;5.63;3.70;;;;;;;1.82;100.00;99580.56;4183277;28;20036;-71
2023/05/18 04:17:06;;;;;;;6.13;4.03;;;;;;;1.84;100.00;99579.19;4182792;28;20036;-71
2023/05/18 04:19:07;;;;;;;6.82;4.03;;;;;;;1.87;100.00;99575.88;4182598;28;20166;-71
2023/05/18 04:21:08;;;;;;;6.55;4.25;;;;;;;1.90;100.00;99583.50;4186035;28;20170;-71
2023/05/18 04:23:08;;;;;;;7.90;4.15;;;;;;;1.91;100.00;99582.38;4180034;28;20393;-71
2023/05/18 04:25:12;;;;;;;7.57;3.90;;;;;;;1.98;100.00;99577.34;4184853;28;20455;-71
2023/05/18 04:27:14;;;;;;;5.05;3.97;;;;;;;2.01;100.00;99586.06;4184772;28;20077;-71
2023/05/18 04:29:14;;;;;;;6.43;4.03;;;;;;;2.07;100.00;99579.41;4184874;28;20450;-71
2023/05/18 04:31:16;;;;;;;5.53;4.05;;;;;;;2.11;100.00;99581.25;4188385;28;20043;-71
2023/05/18 04:33:17;;;;;;;5.53;3.88;;;;;;;2.16;100.00;99580.38;4177397;28;20351;-71
2023/05/18 04:35:17;;;;;;;5.25;3.92;;;;;;;2.21;100.00;99574.84;4182352;28;20044;-71
2023/05/18 04:37:17;;;;;;;6.05;3.88;;;;;;;2.22;100.00;99584.66;4183039;28;20301;-71
2023/05/18 04:39:18;;;;;;;7.80;4.32;;;;;;;2.27;100.00;99579.13;4184423;28;20068;-71
2023/05/18 04:41:21;;;;;;;5.57;3.92;;;;;;;2.34;100.00;99578.75;4176839;28;20446;-71
2023/05/18 04:43:21;;;;;;;5.90;3.88;;;;;;;2.43;100.00;99577.78;4184598;28;20045;-71
2023/05/18 04:45:24;;;;;;;10.07;4.22;;;;;;;2.48;100.00;99582.31;4179877;28;20049;-71
2023/05/18 04:47:25;;;;;;;4.88;3.42;;;;;;;2.58;100.00;99587.66;4183944;28;20045;-71
2023/05/18 04:49:27;;;;;;;5.30;3.25;;;;;;;2.72;100.00;99588.47;4181005;28;20101;-71
2023/05/18 04:51:27;;;;;;;5.10;3.83;;;;;;;2.84;100.00;99585.28;4178713;28;20257;-71
2023/05/18 04:53:27;;;;;;;5.65;3.67;;;;;;;2.96;100.00;99590.28;4180154;28;20037;-71
2023/05/18 04:55:29;;;;;;;6.30;4.05;;;;;;;3.03;100.00;99587.97;4185846;28;20078;-71
2023/05/18 04:57:29;;;;;;;7.50;4.13;;;;;;;3.11;100.00;99587.28;4181387;28;20072;-71
2023/05/18 04:59:30;;;;;;;8.35;4.35;;;;;;;3.21;100.00;99589.00;4182518;28;20052;-72
2023/05/18 05:01:30;;;;;;;6.90;4.38;;;;;;;3.24;100.00;99583.75;4178525;28;20072;-71
2023/05/18 05:03:30;;;;;;;8.18;4.30;;;;;;;3.31;100.00;99594.25;4181655;28;20474;-71
2023/05/18 05:05:31;;;;;;;8.40;4.65;;;;;;;3.37;100.00;99593.88;4183624;28;20032;-71
2023/05/18 05:07:31;;;;;;;7.25;4.47;;;;;;;3.47;100.00;99597.53;4180058;28;20076;-71
2023/05/18 05:09:31;;;;;;;6.97;4.22;;;;;;;3.57;100.00;99598.16;4182113;28;20044;-71
2023/05/18 05:11:32;;;;;;;5.88;3.80;;;;;;;3.68;100.00;99587.78;4181997;28;20048;-71
2023/05/18 05:13:34;;;;;;;7.80;4.50;;;;;;;3.82;100.00;99596.81;4181918;28;20044;-71
2023/05/18 05:15:35;;;;;;;;;;;;;;;3.96;100.00;99591.28;4181572;28;20091;-72
2023/05/18 05:17:36;;;;;;;5.55;3.65;;;;;;;4.06;100.00;99588.34;4182102;28;19924;-72
2023/05/18 05:19:36;;;;;;;5.95;4.13;;;;;;;4.22;100.00;99594.31;4181880;28;20090;-72
2023/05/18 05:21:36;;;;;;;5.18;3.80;;;;;;;4.35;100.00;99584.41;4180493;28;20048;-72
2023/05/18 05:23:37;;;;;;;7.90;4.25;;;;;;;4.47;100.00;99592.91;4181481;28;20044;-71
2023/05/18 05:25:37;;;;;;;6.18;3.50;;;;;;;4.54;100.00;99593.25;4185587;28;20072;-71
2023/05/18 05:27:37;;;;;;;5.63;3.58;;;;;;;4.58;100.00;99587.97;4182395;28;20152;-71
2023/05/18 05:29:38;;;;;;;8.30;4.43;;;;;;;4.65;100.00;99596.56;4180695;28;20037;-71
2023/05/18 05:31:38;;;;;;;6.47;3.97;;;;;;;4.71;100.00;99598.06;4182636;28;20075;-71
2023/05/18 05:33:38;;;;;;;9.95;4.00;;;;;;;4.75;100.00;99596.31;4181267;28;20411;-71
2023/05/18 05:35:39;;;;;;;9.38;3.70;;;;;;;4.82;100.00;99591.22;4182412;28;20420;-71
2023/05/18 05:37:39;;;;;;;5.55;3.40;;;;;;;4.88;100.00;99595.44;4182604;28;20199;-71
2023/05/18 05:39:40;;;;;;;12.73;4.65;;;;;;;4.95;100.00;99595.78;4182742;28;20045;-71
2023/05/18 05:41:40;;;;;;;6.72;3.42;;;;;;;4.96;100.00;99591.91;4183785;28;20617;-71
2023/05/18 05:43:40;;;;;;;6.43;3.50;;;;;;;5.03;100.00;99588.75;4184377;28;20175;-71
2023/05/18 05:45:42;;;;;;;11.85;4.88;;;;;;;5.11;100.00;99585.22;4181825;28;20040;-71
2023/05/18 05:47:42;;;;;;;6.07;3.10;;;;;;;5.19;100.00;99600.13;4186133;28;20060;-71
2023/05/18 05:49:42;;;;;;;6.03;3.15;;;;;;;5.27;100.00;99591.94;4179495;28;20465;-71
2023/05/18 05:51:43;;;;;;;8.75;3.55;;;;;;;5.27;100.00;99586.44;4182142;28;20136;-71
2023/05/18 05:53:46;;;;;;;8.10;3.17;;;;;;;5.39;100.00;99585.88;4177217;28;20102;-71
2023/05/18 05:55:46;;;;;;;7.85;3.47;;;;;;;5.49;100.00;99590.25;4183169;28;20071;-72
2023/05/18 05:57:46;;;;;;;5.93;3.25;;;;;;;5.58;100.00;99591.91;4178976;28;20141;-72
2023/05/18 05:59:47;;;;;;;10.18;3.25;;;;;;;5.69;100.00;99589.66;4183139;28;20107;-72
2023/05/18 06:01:47;;;;;;;7.90;3.47;;;;;;;5.79;100.00;99585.81;4185424;28;20044;-72
2023/05/18 06:03:47;;;;;;;9.50;3.58;;;;;;;5.88;100.00;99587.47;4178269;28;20033;-72
2023/05/18 06:05:48;;;;;;;9.48;3.38;;;;;;;5.95;100.00;99586.22;4182117;28;20507;-72
2023/05/18 06:07:48;;;;;;;6.15;2.63;;;;;;;6.04;100.00;99593.34;4184639;28;20819;-72
2023/05/18 06:09:49;;;;;;;8.30;3.30;;;;;;;6.08;100.00;99590.75;4179362;28;20040;-72
2023/05/18 06:11:49;;;;;;;10.32;3.30;;;;;;;6.17;100.00;99597.06;4183680;28;20090;-72
2023/05/18 06:13:51;;;;;;;7.80;3.30;;;;;;;6.23;100.00;99590.31;4181125;28;20100;-71
2023/05/18 06:15:51;;;;;;;5.10;3.20;;;;;;;6.31;100.00;99591.44;4179812;28;20065;-72
2023/05/18 06:17:51;;;;;;;6.72;3.60;;;;;;;6.43;100.00;99588.84;4181382;28;20060;-72
2023/05/18 06:19:53;;;;;;;4.60;3.08;;;;;;;6.52;100.00;99592.41;4181465;28;20398;-71
2023/05/18 06:21:53;;;;;;;10.63;3.33;;;;;;;6.58;100.00;99599.34;4181660;28;20090;-72
2023/05/18 06:23:53;;;;;;;6.70;3.30;;;;;;;6.64;100.00;99595.31;4177975;28;20037;-72
2023/05/18 06:25:54;;;;;;;8.45;3.40;;;;;;;6.65;100.00;99587.88;4183298;28;20036;-71
2023/05/18 06:27:55;;;;;;;6.75;3.20;;;;;;;6.72;100.00;99600.00;4177612;28;20125;-71
2023/05/18 06:29:55;;;;;;;6.70;3.17;;;;;;;6.76;100.00;99589.16;4181570;28;20121;-71
2023/05/18 06:31:56;;;;;;;6.43;3.33;;;;;;;6.87;100.00;99600.59;4180592;28;20048;-71
2023/05/18 06:33:56;;;;;;;7.00;3.00;;;;;;;6.94;100.00;99603.69;4183660;28;20047;-71
2023/05/18 06:35:57;;;;;;;6.80;2.72;;;;;;;6.99;100.00;99600.75;4185249;28;20071;-71
2023/05/18 06:37:57;;;;;;;6.40;2.70;;;;;;;7.02;100.00;99600.91;4179035;28;20549;-72
2023/05/18 06:39:57;;;;;;;7.65;3.10;;;;;;;7.09;100.00;99597.66;4184362;28;20055;-72
2023/05/18 06:41:58;;;;;;;8.63;3.05;;;;;;;7.13;100.00;99604.13;4180593;28;20052;-72
2023/05/18 06:44:00;;;;;;;7.47;3.13;;;;;;;7.11;100.00;99597.31;4181906;28;20069;-72
2023/05/18 06:46:01;;;;;;;8.40;3.58;;;;;;;7.21;100.00;99605.25;4188653;28;20148;-72
2023/05/18 06:48:01;;;;;;;7.35;3.22;;;;;;;7.26;100.00;99600.38;4183988;28;20044;-72
2023/05/18 06:50:01;;;;;;;5.97;3.17;;;;;;;7.26;100.00;99596.81;4184821;28;20029;-72
2023/05/18 06:52:03;;;;;;;7.00;3.17;;;;;;;7.26;100.00;99600.38;4186382;28;20032;-72
2023/05/18 06:54:03;;;;;;;6.50;3.65;;;;;;;7.15;100.00;99596.34;4186850;28;20050;-72
2023/05/18 06:56:03;;;;;;;5.57;3.10;;;;;;;7.26;100.00;99594.84;4180977;28;20048;-72
2023/05/18 06:58:04;;;;;;;9.48;3.47;;;;;;;7.36;100.00;99596.44;4184237;28;20484;-71
2023/05/18 07:00:07;;;;;;;7.28;3.42;;;;;;;7.46;100.00;99603.56;4189549;28;20029;-72
2023/05/18 07:02:07;;;;;;;6.75;3.40;;;;;;;7.57;100.00;99591.03;4184934;28;20057;-72
2023/05/18 07:04:07;;;;;;;6.50;3.47;;;;;;;7.70;100.00;99606.53;4181640;28;20048;-72
2023/05/18 07:06:08;;;;;;;6.55;3.47;;;;;;;7.84;100.00;99600.75;4182201;28;20709;-71
2023/05/18 07:08:08;;;;;;;7.22;3.40;;;;;;;7.93;100.00;99598.75;4181503;28;20103;-72
2023/05/18 07:10:09;;;;;;;6.25;3.40;;;;;;;8.01;100.00;99597.91;4185890;28;20053;-72
2023/05/18 07:12:09;;;;;;;6.93;3.28;;;;;;;8.08;100.00;99600.13;4185505;28;20060;-72
2023/05/18 07:14:10;;;;;;;8.13;3.38;;;;;;;8.11;100.00;99599.50;4182649;28;20036;-72
2023/05/18 07:16:10;;;;;;;5.53;3.67;;;;;;;8.10;100.00;99595.09;4182678;28;20079;-72
2023/05/18 07:18:10;;;;;;;7.63;3.72;;;;;;;8.21;100.00;99601.03;4180238;28;20266;-72
2023/05/18 07:20:11;;;;;;;8.63;3.20;;;;;;;8.32;100.00;99592.03;4180580;28;20025;-72
2023/05/18 07:22:11;;;;;;;6.88;3.25;;;;;;;8.40;100.00;99599.47;4182131;28;20039;-72
2023/05/18 07:24:11;;;;;;;7.20;4.13;;;;;;;8.53;100.00;99594.81;4183536;28;20025;-72
2023/05/18 07:26:12;;;;;;;8.23;3.75;;;;;;;8.62;100.00;99600.28;4188479;28;20401;-72
2023/05/18 07:28:12;;;;;;;7.20;3.45;;;;;;;8.63;98.49;99604.63;4182508;28;20373;-72
2023/05/18 07:30:12;;;;;;;5.72;3.75;;;;;;;8.63;99.99;99604.63;4184257;28;20098;-72
2023/05/18 07:32:13;;;;;;;5.28;3.25;;;;;;;8.64;100.00;99601.53;4183153;28;20032;-72
2023/05/18 07:34:13;;;;;;;8.50;3.33;;;;;;;8.55;100.00;99600.81;4183487;28;20373;-72
2023/05/18 07:36:14;;;;;;;6.40;3.70;;;;;;;8.53;100.00;99602.28;4138778;28;20056;-72
2023/05/18 07:38:14;;;;;;;9.55;3.70;;;;;;;8.60;100.00;99602.53;4193142;28;20461;-72
2023/05/18 07:40:15;;;;;;;7.90;3.40;;;;;;;8.71;100.00;99601.00;4182780;28;20029;-72
2023/05/18 07:42:15;;;;;;;7.00;3.30;;;;;;;8.81;99.20;99588.72;4180015;28;20049;-72
2023/05/18 07:44:15;;;;;;;4.22;3.50;;;;;;;8.90;99.36;99593.00;4182259;28;20376;-72
2023/05/18 07:46:16;;;;;;;8.13;3.83;;;;;;;8.94;100.00;99595.91;4182319;28;20117;-72
2023/05/18 07:48:16;;;;;;;6.35;3.53;;;;;;;9.03;100.00;99593.88;4180016;28;20029;-72
2023/05/18 07:50:16;;;;;;;5.30;3.13;;;;;;;9.14;100.00;99599.75;4183783;28;20032;-72
2023/05/18 07:52:17;;;;;;;6.00;3.25;;;;;;;9.21;98.46;99595.31;4184772;28;20032;-72
2023/05/18 07:54:18;;;;;;;7.05;3.60;;;;;;;9.30;98.07;99597.97;4183726;28;20044;-72
2023/05/18 07:56:18;;;;;;;9.18;3.80;;;;;;;9.42;95.73;99597.16;4183361;28;20028;-72
2023/05/18 07:58:18;;;;;;;8.55;3.05;;;;;;;9.40;95.49;99593.94;4185113;28;20111;-72
2023/05/18 08:00:19;;;;;;;11.65;4.18;;;;;;;9.42;99.28;99594.41;4183399;28;20097;-72
2023/05/18 08:02:19;;;;;;;6.80;3.67;;;;;;;9.49;97.37;99589.94;4183197;28;20454;-72
2023/05/18 08:04:20;;;;;;;8.05;3.63;;;;;;;9.63;99.11;99588.78;4183787;28;20583;-72
2023/05/18 08:06:20;;;;;;;5.45;3.88;;;;;;;9.73;100.00;99588.34;4181899;28;22069;-72
2023/05/18 08:08:20;;;;;;;10.52;4.90;;;;;;;9.85;100.00;99577.28;4183426;28;20102;-72
2023/05/18 08:10:21;;;;;;;7.47;3.42;;;;;;;9.94;96.44;99588.22;4184807;28;20056;-72
2023/05/18 08:12:22;;;;;;;4.32;3.83;;;;;;;9.95;95.99;99578.78;4184280;28;20041;-72
2023/05/18 08:14:22;;;;;;;11.38;4.05;;;;;;;10.05;96.65;99590.16;4182569;28;20025;-72
2023/05/18 08:16:22;;;;;;;7.32;3.88;;;;;;;10.08;96.10;99591.41;4177756;28;20385;-72
2023/05/18 08:18:23;;;;;;;5.63;3.33;;;;;;;10.03;94.35;99583.38;4184187;28;20490;-72
2023/05/18 08:20:24;;;;;;;8.63;4.30;;;;;;;10.08;96.35;99586.69;4183376;28;20508;-72
2023/05/18 08:22:25;;;;;;;5.93;3.77;;;;;;;10.18;96.56;99582.66;4189276;28;20740;-72
2023/05/18 08:24:25;;;;;;;8.40;3.67;;;;;;;10.19;96.93;99589.00;4184812;28;20037;-72
2023/05/18 08:26:25;;;;;;;7.05;3.28;;;;;;;10.16;93.81;99589.69;4177696;28;20071;-72
2023/05/18 08:28:26;;;;;;;7.95;3.45;;;;;;;10.27;97.22;99586.13;4185677;28;20460;-72
2023/05/18 08:30:26;;;;;;;7.97;3.72;;;;;;;10.22;92.87;99578.06;4182582;28;20048;-72
2023/05/18 08:32:26;;;;;;;7.85;3.38;;;;;;;10.34;91.19;99574.44;4184103;28;20095;-72
2023/05/18 08:34:28;;;;;;;8.23;3.78;;;;;;;10.34;92.13;99572.50;4184319;28;20079;-72
2023/05/18 08:36:30;;;;;;;7.97;3.72;;;;;;;10.41;91.87;99572.69;4183204;28;20099;-72
2023/05/18 08:38:31;;;;;;;9.25;3.90;;;;;;;10.52;91.92;99566.69;4181015;28;20041;-72
2023/05/18 08:40:42;;;;;;;5.95;3.20;;;;;;;10.49;95.06;99559.88;4179187;28;20394;-72
2023/05/18 08:43:00;;;;;;;6.05;3.50;;;;;;;10.48;93.22;99566.56;4179697;28;20068;-72
2023/05/18 08:45:12;;;;;;;6.15;3.58;;;;;;;10.53;90.58;99566.34;4182116;28;20048;-72
2023/05/18 08:47:14;;;;;;;8.13;3.53;;;;;;;10.39;92.46;99571.44;4182398;28;20048;-72
2023/05/18 08:49:16;;;;;;;6.78;3.35;;;;;;;10.58;93.18;99563.31;4181085;28;20083;-72
2023/05/18 08:51:19;;;;;;;9.82;3.70;;;;;;;10.87;95.05;99556.63;4179920;28;20102;-72
2023/05/18 08:53:20;;;;;;;9.80;3.70;;;;;;;11.03;90.97;99561.38;4180339;28;20032;-72
2023/05/18 08:55:22;;;;;;;7.07;3.58;;;;;;;11.19;94.08;99563.03;4183399;28;20426;-72
2023/05/18 08:57:23;;;;;;;6.43;3.58;;;;;;;11.37;91.42;99565.44;4182291;28;20044;-72
2023/05/18 08:59:26;;;;;;;6.25;3.28;;;;;;;11.51;89.07;99560.28;4177606;28;20052;-72
2023/05/18 09:01:29;;;;;;;6.13;3.45;;;;;;;11.72;90.69;99554.44;4184793;28;20366;-72
2023/05/18 09:03:31;;;;;;;8.65;3.40;;;;;;;11.88;89.01;99555.25;4183637;28;20047;-72
2023/05/18 09:05:31;;;;;;;8.82;4.70;;;;;;;11.99;91.76;99555.47;4179554;28;20090;-72
2023/05/18 09:07:32;;;;;;;5.70;3.20;;;;;;;12.16;90.92;99563.41;4183303;28;20120;-72
2023/05/18 09:09:34;;;;;;;7.82;3.55;;;;;;;12.33;91.65;99563.00;4182766;28;20381;-72
2023/05/18 09:11:34;;;;;;;6.32;3.40;;;;;;;12.44;87.25;99562.44;4178854;28;20056;-72
2023/05/18 09:13:35;;;;;;;7.35;3.25;;;;;;;12.31;84.71;99565.31;4179132;28;20029;-73
2023/05/18 09:15:35;;;;;;;6.72;3.58;;;;;;;12.17;85.27;99562.25;4183877;28;20072;-72
2023/05/18 09:17:35;;;;;;;9.98;3.70;;;;;;;11.76;83.62;99556.13;4182846;28;20044;-72
2023/05/18 09:19:36;;;;;;;5.25;3.88;;;;;;;11.61;83.98;99559.72;4177423;28;20101;-72
2023/05/18 09:21:36;;;;;;;5.93;3.50;;;;;;;11.57;84.97;99569.91;4182354;28;20045;-72
2023/05/18 09:23:38;;;;;;;8.77;3.72;;;;;;;11.77;85.40;99559.72;4175158;28;20385;-72
2023/05/18 09:25:51;;;;;;;7.83;3.53;;;;;;;12.02;87.62;99555.59;4183750;28;20051;-72
2023/05/18 09:27:52;;;;;;;9.77;4.13;;;;;;;11.85;84.85;99555.16;4179117;28;20468;-72
2023/05/18 09:29:53;;;;;;;7.45;3.45;;;;;;;12.06;84.59;99558.41;4183144;28;20384;-72
2023/05/18 09:31:54;;;;;;;6.95;3.22;;;;;;;12.14;83.56;99542.75;4182949;28;20067;-72